sensor_id;sensor_type;location;lat;lon;timestamp;temperature;humidity
12688;DHT22;6408;59.388;17.798;2023-02-28T00:01:08;1.30;99.90
12688;DHT22;6408;59.388;17.798;2023-02-28T00:03:37;1.40;99.90
12688;DHT22;6408;59.388;17.798;2023-02-28T00:06:06;1.40;99.90
12688;DHT22;6408;59.388;17.798;2023-02-28T00:08:36;1.50;99.90
12688;DHT22;6408;59.388;17.798;2023-02-28T00:11:06;1.50;99.90
12688;DHT22;6408;59.388;17.798;2023-02-28T00:13:35;1.50;99.90
12688;DHT22;6408;59.388;17.798;2023-02-28T00:16:05;1.50;99.90
12688;DHT22;6408;59.388;17.798;2023-02-28T00:18:33;1.40;99.90
12688;DHT22;6408;59.388;17.798;2023-02-28T00:21:01;1.40;99.90
12688;DHT22;6408;59.388;17.798;2023-02-28T00:23:29;1.40;99.90
12688;DHT22;6408;59.388;17.798;2023-02-28T00:25:58;1.30;99.90
12688;DHT22;6408;59.388;17.798;2023-02-28T00:28:26;1.20;99.90
12688;DHT22;6408;59.388;17.798;2023-02-28T00:30:54;1.20;99.90
12688;DHT22;6408;59.388;17.798;2023-02-28T00:33:22;1.20;99.90
12688;DHT22;6408;59.388;17.798;2023-02-28T00:35:50;1.20;99.90
12688;DHT22;6408;59.388;17.798;2023-02-28T00:38:18;1.20;99.90
12688;DHT22;6408;59.388;17.798;2023-02-28T00:40:45;1.20;99.90
12688;DHT22;6408;59.388;17.798;2023-02-28T00:43:15;1.20;99.90
12688;DHT22;6408;59.388;17.798;2023-02-28T00:45:42;1.20;99.90
12688;DHT22;6408;59.388;17.798;2023-02-28T00:48:10;1.10;99.90
12688;DHT22;6408;59.388;17.798;2023-02-28T00:50:38;1.10;99.90
12688;DHT22;6408;59.388;17.798;2023-02-28T00:53:06;1.10;99.90
12688;DHT22;6408;59.388;17.798;2023-02-28T00:55:33;1.10;99.90
12688;DHT22;6408;59.388;17.798;2023-02-28T00:58:01;1.00;99.90
12688;DHT22;6408;59.388;17.798;2023-02-28T01:00:30;1.00;99.90
12688;DHT22;6408;59.388;17.798;2023-02-28T01:02:58;0.90;99.90
12688;DHT22;6408;59.388;17.798;2023-02-28T01:05:25;0.90;99.90
12688;DHT22;6408;59.388;17.798;2023-02-28T01:07:53;0.90;99.90
12688;DHT22;6408;59.388;17.798;2023-02-28T01:10:21;0.90;99.90
12688;DHT22;6408;59.388;17.798;2023-02-28T01:12:48;0.90;99.90
12688;DHT22;6408;59.388;17.798;2023-02-28T01:15:16;0.80;99.90
12688;DHT22;6408;59.388;17.798;2023-02-28T01:17:45;0.80;99.90
12688;DHT22;6408;59.388;17.798;2023-02-28T01:20:13;0.80;99.90
12688;DHT22;6408;59.388;17.798;2023-02-28T01:22:40;0.80;99.90
12688;DHT22;6408;59.388;17.798;2023-02-28T01:25:08;0.70;99.90
12688;DHT22;6408;59.388;17.798;2023-02-28T01:27:36;0.70;99.90
12688;DHT22;6408;59.388;17.798;2023-02-28T01:30:06;0.70;99.90
12688;DHT22;6408;59.388;17.798;2023-02-28T01:32:34;0.70;99.90
12688;DHT22;6408;59.388;17.798;2023-02-28T01:35:03;0.70;99.90
12688;DHT22;6408;59.388;17.798;2023-02-28T01:37:31;0.70;99.90
12688;DHT22;6408;59.388;17.798;2023-02-28T01:39:58;0.80;99.90
12688;DHT22;6408;59.388;17.798;2023-02-28T01:42:26;0.80;99.90
12688;DHT22;6408;59.388;17.798;2023-02-28T01:45:08;0.80;99.90
12688;DHT22;6408;59.388;17.798;2023-02-28T01:47:42;0.80;99.90
12688;DHT22;6408;59.388;17.798;2023-02-28T01:50:16;0.80;99.90
12688;DHT22;6408;59.388;17.798;2023-02-28T01:52:45;0.80;99.90
12688;DHT22;6408;59.388;17.798;2023-02-28T01:55:15;0.90;99.90
12688;DHT22;6408;59.388;17.798;2023-02-28T01:57:48;0.80;99.90
12688;DHT22;6408;59.388;17.798;2023-02-28T02:00:18;0.80;99.90
12688;DHT22;6408;59.388;17.798;2023-02-28T02:02:49;0.80;99.90
12688;DHT22;6408;59.388;17.798;2023-02-28T02:05:21;0.80;99.90
12688;DHT22;6408;59.388;17.798;2023-02-28T02:07:52;0.80;99.90
12688;DHT22;6408;59.388;17.798;2023-02-28T02:10:24;0.80;99.90
12688;DHT22;6408;59.388;17.798;2023-02-28T02:13:10;0.80;99.90
12688;DHT22;6408;59.388;17.798;2023-02-28T02:15:42;0.70;99.90
12688;DHT22;6408;59.388;17.798;2023-02-28T02:18:20;0.70;99.90
12688;DHT22;6408;59.388;17.798;2023-02-28T02:21:32;0.60;99.90
12688;DHT22;6408;59.388;17.798;2023-02-28T02:27:25;0.60;99.90
12688;DHT22;6408;59.388;17.798;2023-02-28T02:33:42;0.50;99.90
12688;DHT22;6408;59.388;17.798;2023-02-28T02:36:19;0.40;99.90
12688;DHT22;6408;59.388;17.798;2023-02-28T02:38:51;0.30;99.90
12688;DHT22;6408;59.388;17.798;2023-02-28T02:41:24;0.30;99.90
12688;DHT22;6408;59.388;17.798;2023-02-28T02:43:57;0.20;99.90
12688;DHT22;6408;59.388;17.798;2023-02-28T02:46:28;0.20;99.90
12688;DHT22;6408;59.388;17.798;2023-02-28T02:48:59;0.20;99.90
12688;DHT22;6408;59.388;17.798;2023-02-28T02:51:30;0.10;99.90
12688;DHT22;6408;59.388;17.798;2023-02-28T02:54:03;0.10;99.90
12688;DHT22;6408;59.388;17.798;2023-02-28T02:56:33;0.10;99.90
12688;DHT22;6408;59.388;17.798;2023-02-28T02:59:06;0.10;99.90
12688;DHT22;6408;59.388;17.798;2023-02-28T03:01:35;0.10;99.90
12688;DHT22;6408;59.388;17.798;2023-02-28T03:04:07;0.10;99.90
12688;DHT22;6408;59.388;17.798;2023-02-28T03:06:37;0.10;99.90
12688;DHT22;6408;59.388;17.798;2023-02-28T03:09:04;0.10;99.90
12688;DHT22;6408;59.388;17.798;2023-02-28T03:11:32;0.20;99.90
12688;DHT22;6408;59.388;17.798;2023-02-28T03:14:15;0.20;99.90
12688;DHT22;6408;59.388;17.798;2023-02-28T03:17:08;0.20;99.90
12688;DHT22;6408;59.388;17.798;2023-02-28T03:19:55;0.20;99.90
12688;DHT22;6408;59.388;17.798;2023-02-28T03:22:39;0.20;99.90
12688;DHT22;6408;59.388;17.798;2023-02-28T03:25:20;0.30;99.90
12688;DHT22;6408;59.388;17.798;2023-02-28T03:27:59;0.30;99.90
12688;DHT22;6408;59.388;17.798;2023-02-28T03:30:35;0.20;99.90
12688;DHT22;6408;59.388;17.798;2023-02-28T03:33:07;0.30;99.90
12688;DHT22;6408;59.388;17.798;2023-02-28T03:35:39;0.20;99.90
12688;DHT22;6408;59.388;17.798;2023-02-28T03:38:12;0.30;99.90
12688;DHT22;6408;59.388;17.798;2023-02-28T03:40:48;0.30;99.90
12688;DHT22;6408;59.388;17.798;2023-02-28T03:43:21;0.30;99.90
12688;DHT22;6408;59.388;17.798;2023-02-28T03:45:50;0.30;99.90
12688;DHT22;6408;59.388;17.798;2023-02-28T03:48:23;0.30;99.90
12688;DHT22;6408;59.388;17.798;2023-02-28T03:50:54;0.30;99.90
12688;DHT22;6408;59.388;17.798;2023-02-28T03:53:27;0.30;99.90
12688;DHT22;6408;59.388;17.798;2023-02-28T03:55:59;0.30;99.90
12688;DHT22;6408;59.388;17.798;2023-02-28T03:58:33;0.30;99.90
12688;DHT22;6408;59.388;17.798;2023-02-28T04:01:07;0.30;99.90
12688;DHT22;6408;59.388;17.798;2023-02-28T04:03:36;0.40;99.90
12688;DHT22;6408;59.388;17.798;2023-02-28T04:06:05;0.30;99.90
12688;DHT22;6408;59.388;17.798;2023-02-28T04:08:36;0.40;99.90
12688;DHT22;6408;59.388;17.798;2023-02-28T04:11:06;0.30;99.90
12688;DHT22;6408;59.388;17.798;2023-02-28T04:13:35;0.40;99.90
12688;DHT22;6408;59.388;17.798;2023-02-28T04:16:07;0.30;99.90
12688;DHT22;6408;59.388;17.798;2023-02-28T04:18:37;0.30;99.90
12688;DHT22;6408;59.388;17.798;2023-02-28T04:21:05;0.30;99.90
12688;DHT22;6408;59.388;17.798;2023-02-28T04:23:34;0.30;99.90
12688;DHT22;6408;59.388;17.798;2023-02-28T04:26:02;0.30;99.90
12688;DHT22;6408;59.388;17.798;2023-02-28T04:28:29;0.20;99.90
12688;DHT22;6408;59.388;17.798;2023-02-28T04:30:58;0.30;99.90
12688;DHT22;6408;59.388;17.798;2023-02-28T04:33:26;0.20;99.90
12688;DHT22;6408;59.388;17.798;2023-02-28T04:36:00;0.20;99.90
12688;DHT22;6408;59.388;17.798;2023-02-28T04:38:28;0.30;99.90
12688;DHT22;6408;59.388;17.798;2023-02-28T04:40:59;0.30;99.90
12688;DHT22;6408;59.388;17.798;2023-02-28T04:43:29;0.30;99.90
12688;DHT22;6408;59.388;17.798;2023-02-28T04:45:58;0.20;99.90
12688;DHT22;6408;59.388;17.798;2023-02-28T04:48:28;0.20;99.90
12688;DHT22;6408;59.388;17.798;2023-02-28T04:51:00;0.20;99.90
12688;DHT22;6408;59.388;17.798;2023-02-28T04:53:28;0.20;99.90
12688;DHT22;6408;59.388;17.798;2023-02-28T04:55:58;0.10;99.90
12688;DHT22;6408;59.388;17.798;2023-02-28T04:58:25;0.10;99.90
12688;DHT22;6408;59.388;17.798;2023-02-28T05:00:54;0.10;99.90
12688;DHT22;6408;59.388;17.798;2023-02-28T05:03:27;0.20;99.90
12688;DHT22;6408;59.388;17.798;2023-02-28T05:05:55;0.20;99.90
12688;DHT22;6408;59.388;17.798;2023-02-28T05:08:22;0.20;99.90
12688;DHT22;6408;59.388;17.798;2023-02-28T05:10:50;0.20;99.90
12688;DHT22;6408;59.388;17.798;2023-02-28T05:13:20;0.20;99.90
12688;DHT22;6408;59.388;17.798;2023-02-28T05:15:48;0.30;99.90
12688;DHT22;6408;59.388;17.798;2023-02-28T05:18:16;0.20;99.90
12688;DHT22;6408;59.388;17.798;2023-02-28T05:20:43;0.30;99.90
12688;DHT22;6408;59.388;17.798;2023-02-28T05:23:12;0.30;99.90
12688;DHT22;6408;59.388;17.798;2023-02-28T05:25:40;0.30;99.90
12688;DHT22;6408;59.388;17.798;2023-02-28T05:28:08;0.30;99.90
12688;DHT22;6408;59.388;17.798;2023-02-28T05:30:37;0.20;99.90
12688;DHT22;6408;59.388;17.798;2023-02-28T05:33:05;0.20;99.90
12688;DHT22;6408;59.388;17.798;2023-02-28T05:35:32;0.30;99.90
12688;DHT22;6408;59.388;17.798;2023-02-28T05:38:00;0.20;99.90
12688;DHT22;6408;59.388;17.798;2023-02-28T05:40:28;0.20;99.90
12688;DHT22;6408;59.388;17.798;2023-02-28T05:42:55;0.20;99.90
12688;DHT22;6408;59.388;17.798;2023-02-28T05:45:23;0.20;99.90
12688;DHT22;6408;59.388;17.798;2023-02-28T05:47:55;0.20;99.90
12688;DHT22;6408;59.388;17.798;2023-02-28T05:50:23;0.20;99.90
12688;DHT22;6408;59.388;17.798;2023-02-28T05:52:50;0.30;99.90
12688;DHT22;6408;59.388;17.798;2023-02-28T05:55:18;0.30;99.90
12688;DHT22;6408;59.388;17.798;2023-02-28T05:57:45;0.30;99.90
12688;DHT22;6408;59.388;17.798;2023-02-28T06:00:14;0.30;99.90
12688;DHT22;6408;59.388;17.798;2023-02-28T06:02:43;0.40;99.90
12688;DHT22;6408;59.388;17.798;2023-02-28T06:05:16;0.30;99.90
12688;DHT22;6408;59.388;17.798;2023-02-28T06:07:44;0.30;99.90
12688;DHT22;6408;59.388;17.798;2023-02-28T06:10:12;0.40;99.90
12688;DHT22;6408;59.388;17.798;2023-02-28T06:12:40;0.40;99.90
12688;DHT22;6408;59.388;17.798;2023-02-28T06:15:12;0.40;99.90
12688;DHT22;6408;59.388;17.798;2023-02-28T06:17:40;0.50;99.90
12688;DHT22;6408;59.388;17.798;2023-02-28T06:20:09;0.50;99.90
12688;DHT22;6408;59.388;17.798;2023-02-28T06:22:40;0.50;99.90
12688;DHT22;6408;59.388;17.798;2023-02-28T06:25:09;0.50;99.90
12688;DHT22;6408;59.388;17.798;2023-02-28T06:27:37;0.50;99.90
12688;DHT22;6408;59.388;17.798;2023-02-28T06:30:05;0.50;99.90
12688;DHT22;6408;59.388;17.798;2023-02-28T06:32:34;0.60;99.90
12688;DHT22;6408;59.388;17.798;2023-02-28T06:35:02;0.60;99.90
12688;DHT22;6408;59.388;17.798;2023-02-28T06:37:30;0.60;99.90
12688;DHT22;6408;59.388;17.798;2023-02-28T06:40:00;0.70;99.90
12688;DHT22;6408;59.388;17.798;2023-02-28T06:42:29;0.80;99.90
12688;DHT22;6408;59.388;17.798;2023-02-28T06:45:08;0.90;99.90
12688;DHT22;6408;59.388;17.798;2023-02-28T06:47:36;1.00;99.90
12688;DHT22;6408;59.388;17.798;2023-02-28T06:50:05;1.10;99.90
12688;DHT22;6408;59.388;17.798;2023-02-28T06:52:32;1.20;99.90
12688;DHT22;6408;59.388;17.798;2023-02-28T06:55:05;1.30;99.90
12688;DHT22;6408;59.388;17.798;2023-02-28T06:57:34;1.30;99.90
12688;DHT22;6408;59.388;17.798;2023-02-28T07:00:05;1.40;99.90
12688;DHT22;6408;59.388;17.798;2023-02-28T07:02:34;1.50;99.90
12688;DHT22;6408;59.388;17.798;2023-02-28T07:05:02;1.70;99.90
12688;DHT22;6408;59.388;17.798;2023-02-28T07:07:30;1.70;99.90
12688;DHT22;6408;59.388;17.798;2023-02-28T07:09:58;1.90;99.90
12688;DHT22;6408;59.388;17.798;2023-02-28T07:12:27;2.10;99.90
12688;DHT22;6408;59.388;17.798;2023-02-28T07:14:54;2.20;99.90
12688;DHT22;6408;59.388;17.798;2023-02-28T07:17:22;2.30;99.90
12688;DHT22;6408;59.388;17.798;2023-02-28T07:19:51;2.30;99.90
12688;DHT22;6408;59.388;17.798;2023-02-28T07:22:19;2.30;99.90
12688;DHT22;6408;59.388;17.798;2023-02-28T07:24:47;2.40;99.90
12688;DHT22;6408;59.388;17.798;2023-02-28T07:27:14;2.50;99.90
12688;DHT22;6408;59.388;17.798;2023-02-28T07:29:51;2.60;99.90
12688;DHT22;6408;59.388;17.798;2023-02-28T07:32:22;2.60;99.90
12688;DHT22;6408;59.388;17.798;2023-02-28T07:34:49;2.60;99.90
12688;DHT22;6408;59.388;17.798;2023-02-28T07:37:17;2.50;99.90
12688;DHT22;6408;59.388;17.798;2023-02-28T07:39:44;2.50;99.90
12688;DHT22;6408;59.388;17.798;2023-02-28T07:42:12;2.60;99.90
12688;DHT22;6408;59.388;17.798;2023-02-28T07:44:40;2.50;99.90
12688;DHT22;6408;59.388;17.798;2023-02-28T07:47:10;2.60;99.90
12688;DHT22;6408;59.388;17.798;2023-02-28T07:49:37;2.50;99.90
12688;DHT22;6408;59.388;17.798;2023-02-28T07:52:06;2.50;99.90
12688;DHT22;6408;59.388;17.798;2023-02-28T07:54:33;2.50;99.90
12688;DHT22;6408;59.388;17.798;2023-02-28T07:57:01;2.40;99.90
12688;DHT22;6408;59.388;17.798;2023-02-28T07:59:30;2.40;99.90
12688;DHT22;6408;59.388;17.798;2023-02-28T08:01:58;2.50;99.90
12688;DHT22;6408;59.388;17.798;2023-02-28T08:04:27;2.60;99.90
12688;DHT22;6408;59.388;17.798;2023-02-28T08:06:54;2.80;99.90
12688;DHT22;6408;59.388;17.798;2023-02-28T08:09:22;2.90;99.90
12688;DHT22;6408;59.388;17.798;2023-02-28T08:11:49;3.00;99.90
12688;DHT22;6408;59.388;17.798;2023-02-28T08:14:16;3.20;99.90
12688;DHT22;6408;59.388;17.798;2023-02-28T08:16:44;3.30;99.90
12688;DHT22;6408;59.388;17.798;2023-02-28T08:19:11;3.40;99.90
12688;DHT22;6408;59.388;17.798;2023-02-28T08:21:40;3.50;99.90
12688;DHT22;6408;59.388;17.798;2023-02-28T08:24:07;3.80;99.90
12688;DHT22;6408;59.388;17.798;2023-02-28T08:26:35;4.10;99.90
12688;DHT22;6408;59.388;17.798;2023-02-28T08:29:03;4.30;99.90
12688;DHT22;6408;59.388;17.798;2023-02-28T08:31:30;4.70;99.90
12688;DHT22;6408;59.388;17.798;2023-02-28T08:33:58;5.80;99.90
12688;DHT22;6408;59.388;17.798;2023-02-28T08:36:26;6.80;99.90
12688;DHT22;6408;59.388;17.798;2023-02-28T08:38:56;7.10;99.90
12688;DHT22;6408;59.388;17.798;2023-02-28T08:41:25;7.30;99.90
12688;DHT22;6408;59.388;17.798;2023-02-28T08:43:53;7.30;99.90
12688;DHT22;6408;59.388;17.798;2023-02-28T08:46:20;7.20;99.90
12688;DHT22;6408;59.388;17.798;2023-02-28T08:48:51;7.00;99.90
12688;DHT22;6408;59.388;17.798;2023-02-28T08:51:20;6.90;99.90
12688;DHT22;6408;59.388;17.798;2023-02-28T08:53:52;6.50;99.90
12688;DHT22;6408;59.388;17.798;2023-02-28T08:56:21;5.90;99.90
12688;DHT22;6408;59.388;17.798;2023-02-28T08:58:50;5.40;99.90
12688;DHT22;6408;59.388;17.798;2023-02-28T09:01:19;5.60;99.90
12688;DHT22;6408;59.388;17.798;2023-02-28T09:03:47;6.00;99.90
12688;DHT22;6408;59.388;17.798;2023-02-28T09:06:16;7.00;99.90
12688;DHT22;6408;59.388;17.798;2023-02-28T09:08:44;9.20;99.90
12688;DHT22;6408;59.388;17.798;2023-02-28T09:11:12;8.50;99.90
12688;DHT22;6408;59.388;17.798;2023-02-28T09:13:42;7.90;99.90
12688;DHT22;6408;59.388;17.798;2023-02-28T09:16:11;8.40;99.90
12688;DHT22;6408;59.388;17.798;2023-02-28T09:18:39;9.70;99.90
12688;DHT22;6408;59.388;17.798;2023-02-28T09:21:08;10.30;99.90
12688;DHT22;6408;59.388;17.798;2023-02-28T09:23:37;11.90;99.90
12688;DHT22;6408;59.388;17.798;2023-02-28T09:26:05;11.90;99.90
12688;DHT22;6408;59.388;17.798;2023-02-28T09:28:33;12.70;99.90
12688;DHT22;6408;59.388;17.798;2023-02-28T09:31:03;13.20;99.90
12688;DHT22;6408;59.388;17.798;2023-02-28T09:33:30;15.00;99.90
12688;DHT22;6408;59.388;17.798;2023-02-28T09:36:02;15.60;99.90
12688;DHT22;6408;59.388;17.798;2023-02-28T09:38:30;16.60;99.90
12688;DHT22;6408;59.388;17.798;2023-02-28T09:40:59;17.60;99.90
12688;DHT22;6408;59.388;17.798;2023-02-28T09:43:29;17.80;99.90
12688;DHT22;6408;59.388;17.798;2023-02-28T09:46:00;18.00;99.90
12688;DHT22;6408;59.388;17.798;2023-02-28T09:48:33;18.80;99.90
12688;DHT22;6408;59.388;17.798;2023-02-28T09:51:05;19.60;99.90
12688;DHT22;6408;59.388;17.798;2023-02-28T09:53:39;19.00;99.90
12688;DHT22;6408;59.388;17.798;2023-02-28T09:56:09;20.40;99.90
12688;DHT22;6408;59.388;17.798;2023-02-28T09:58:40;21.00;99.90
12688;DHT22;6408;59.388;17.798;2023-02-28T10:01:12;20.40;99.90
12688;DHT22;6408;59.388;17.798;2023-02-28T10:03:53;21.10;99.90
12688;DHT22;6408;59.388;17.798;2023-02-28T10:06:26;19.70;99.90
12688;DHT22;6408;59.388;17.798;2023-02-28T10:08:58;19.50;99.90
12688;DHT22;6408;59.388;17.798;2023-02-28T10:11:28;18.50;99.90
12688;DHT22;6408;59.388;17.798;2023-02-28T10:13:59;17.10;99.90
12688;DHT22;6408;59.388;17.798;2023-02-28T10:16:33;16.60;99.90
12688;DHT22;6408;59.388;17.798;2023-02-28T10:19:10;16.90;99.90
12688;DHT22;6408;59.388;17.798;2023-02-28T10:21:42;17.00;99.90
12688;DHT22;6408;59.388;17.798;2023-02-28T10:24:20;16.00;99.90
12688;DHT22;6408;59.388;17.798;2023-02-28T10:26:52;16.50;99.90
12688;DHT22;6408;59.388;17.798;2023-02-28T10:29:24;17.00;99.90
12688;DHT22;6408;59.388;17.798;2023-02-28T10:31:51;17.90;99.90
12688;DHT22;6408;59.388;17.798;2023-02-28T10:34:20;18.00;99.90
12688;DHT22;6408;59.388;17.798;2023-02-28T10:36:50;18.10;99.90
12688;DHT22;6408;59.388;17.798;2023-02-28T10:39:38;17.60;99.90
12688;DHT22;6408;59.388;17.798;2023-02-28T10:42:20;17.90;99.90
12688;DHT22;6408;59.388;17.798;2023-02-28T10:45:06;17.60;99.90
12688;DHT22;6408;59.388;17.798;2023-02-28T10:47:34;16.70;99.90
12688;DHT22;6408;59.388;17.798;2023-02-28T10:50:04;16.10;99.90
12688;DHT22;6408;59.388;17.798;2023-02-28T10:52:37;15.80;99.90
12688;DHT22;6408;59.388;17.798;2023-02-28T10:55:19;16.70;99.90
12688;DHT22;6408;59.388;17.798;2023-02-28T10:57:48;16.90;99.90
12688;DHT22;6408;59.388;17.798;2023-02-28T11:00:17;16.60;99.90
12688;DHT22;6408;59.388;17.798;2023-02-28T11:02:45;16.90;99.90
12688;DHT22;6408;59.388;17.798;2023-02-28T11:05:28;17.60;99.90
12688;DHT22;6408;59.388;17.798;2023-02-28T11:08:02;19.00;99.90
12688;DHT22;6408;59.388;17.798;2023-02-28T11:10:32;19.20;99.90
12688;DHT22;6408;59.388;17.798;2023-02-28T11:13:01;18.80;99.90
12688;DHT22;6408;59.388;17.798;2023-02-28T11:15:30;18.60;99.90
12688;DHT22;6408;59.388;17.798;2023-02-28T11:18:01;17.70;99.90
12688;DHT22;6408;59.388;17.798;2023-02-28T11:20:33;16.60;99.90
12688;DHT22;6408;59.388;17.798;2023-02-28T11:23:03;16.30;99.90
12688;DHT22;6408;59.388;17.798;2023-02-28T11:25:32;16.60;99.90
12688;DHT22;6408;59.388;17.798;2023-02-28T11:28:02;17.90;99.90
12688;DHT22;6408;59.388;17.798;2023-02-28T11:30:37;18.00;99.90
12688;DHT22;6408;59.388;17.798;2023-02-28T11:33:23;18.80;99.90
12688;DHT22;6408;59.388;17.798;2023-02-28T11:35:56;19.20;99.90
12688;DHT22;6408;59.388;17.798;2023-02-28T11:38:26;20.30;99.90
12688;DHT22;6408;59.388;17.798;2023-02-28T11:41:06;20.60;99.90
12688;DHT22;6408;59.388;17.798;2023-02-28T11:43:53;20.60;99.90
12688;DHT22;6408;59.388;17.798;2023-02-28T11:46:30;20.20;99.90
12688;DHT22;6408;59.388;17.798;2023-02-28T11:49:10;20.30;99.90
12688;DHT22;6408;59.388;17.798;2023-02-28T11:51:48;19.60;99.90
12688;DHT22;6408;59.388;17.798;2023-02-28T11:54:41;18.90;99.90
12688;DHT22;6408;59.388;17.798;2023-02-28T11:57:24;18.20;99.90
12688;DHT22;6408;59.388;17.798;2023-02-28T12:00:03;17.90;99.90
12688;DHT22;6408;59.388;17.798;2023-02-28T12:02:37;17.00;99.90
12688;DHT22;6408;59.388;17.798;2023-02-28T12:05:17;16.40;99.90
12688;DHT22;6408;59.388;17.798;2023-02-28T12:07:55;16.10;99.90
12688;DHT22;6408;59.388;17.798;2023-02-28T12:10:33;15.30;99.90
12688;DHT22;6408;59.388;17.798;2023-02-28T12:13:14;15.10;99.90
12688;DHT22;6408;59.388;17.798;2023-02-28T12:16:01;15.20;99.90
12688;DHT22;6408;59.388;17.798;2023-02-28T12:18:48;16.10;99.90
12688;DHT22;6408;59.388;17.798;2023-02-28T12:21:24;16.70;99.90
12688;DHT22;6408;59.388;17.798;2023-02-28T12:24:18;16.70;99.90
12688;DHT22;6408;59.388;17.798;2023-02-28T12:26:50;16.00;99.90
12688;DHT22;6408;59.388;17.798;2023-02-28T12:29:21;15.50;99.90
12688;DHT22;6408;59.388;17.798;2023-02-28T12:31:52;14.90;99.90
12688;DHT22;6408;59.388;17.798;2023-02-28T12:34:25;14.20;99.90
12688;DHT22;6408;59.388;17.798;2023-02-28T12:36:56;14.30;99.90
12688;DHT22;6408;59.388;17.798;2023-02-28T12:39:30;14.10;99.90
12688;DHT22;6408;59.388;17.798;2023-02-28T12:42:01;14.20;99.90
12688;DHT22;6408;59.388;17.798;2023-02-28T12:44:34;14.70;99.90
12688;DHT22;6408;59.388;17.798;2023-02-28T12:47:04;14.90;99.90
12688;DHT22;6408;59.388;17.798;2023-02-28T12:49:36;14.40;99.90
12688;DHT22;6408;59.388;17.798;2023-02-28T12:52:05;13.80;99.90
12688;DHT22;6408;59.388;17.798;2023-02-28T12:54:44;13.00;99.90
12688;DHT22;6408;59.388;17.798;2023-02-28T12:57:20;12.00;99.90
12688;DHT22;6408;59.388;17.798;2023-02-28T12:59:52;11.20;99.90
12688;DHT22;6408;59.388;17.798;2023-02-28T13:02:50;10.50;99.90
12688;DHT22;6408;59.388;17.798;2023-02-28T13:08:59;9.90;99.90
12688;DHT22;6408;59.388;17.798;2023-02-28T13:11:32;9.50;99.90
12688;DHT22;6408;59.388;17.798;2023-02-28T13:14:02;9.40;99.90
12688;DHT22;6408;59.388;17.798;2023-02-28T13:16:50;9.30;99.90
12688;DHT22;6408;59.388;17.798;2023-02-28T13:19:20;9.20;99.90
12688;DHT22;6408;59.388;17.798;2023-02-28T13:21:50;9.20;99.90
12688;DHT22;6408;59.388;17.798;2023-02-28T13:24:40;9.30;99.90
12688;DHT22;6408;59.388;17.798;2023-02-28T13:27:22;9.40;99.90
12688;DHT22;6408;59.388;17.798;2023-02-28T13:29:51;9.30;99.90
12688;DHT22;6408;59.388;17.798;2023-02-28T13:35:37;9.40;99.90
12688;DHT22;6408;59.388;17.798;2023-02-28T13:38:35;9.30;99.90
12688;DHT22;6408;59.388;17.798;2023-02-28T13:44:24;9.00;99.90
12688;DHT22;6408;59.388;17.798;2023-02-28T13:47:21;8.70;99.90
12688;DHT22;6408;59.388;17.798;2023-02-28T13:49:51;8.70;99.90
12688;DHT22;6408;59.388;17.798;2023-02-28T13:52:21;8.60;99.90
12688;DHT22;6408;59.388;17.798;2023-02-28T13:55:24;8.50;99.90
12688;DHT22;6408;59.388;17.798;2023-02-28T14:01:14;8.40;99.90
12688;DHT22;6408;59.388;17.798;2023-02-28T14:03:57;8.30;99.90
12688;DHT22;6408;59.388;17.798;2023-02-28T14:06:28;8.20;99.90
12688;DHT22;6408;59.388;17.798;2023-02-28T14:08:59;8.20;99.90
12688;DHT22;6408;59.388;17.798;2023-02-28T14:11:31;8.10;99.90
12688;DHT22;6408;59.388;17.798;2023-02-28T14:13:59;8.10;99.90
12688;DHT22;6408;59.388;17.798;2023-02-28T14:16:37;8.00;99.90
12688;DHT22;6408;59.388;17.798;2023-02-28T14:19:12;8.00;99.90
12688;DHT22;6408;59.388;17.798;2023-02-28T14:21:50;8.00;99.90
12688;DHT22;6408;59.388;17.798;2023-02-28T14:24:42;8.00;99.90
12688;DHT22;6408;59.388;17.798;2023-02-28T14:27:35;7.90;99.90
12688;DHT22;6408;59.388;17.798;2023-02-28T14:30:29;7.80;99.90
12688;DHT22;6408;59.388;17.798;2023-02-28T14:33:30;7.80;99.90
12688;DHT22;6408;59.388;17.798;2023-02-28T14:36:07;7.80;99.90
12688;DHT22;6408;59.388;17.798;2023-02-28T14:38:42;7.80;99.90
12688;DHT22;6408;59.388;17.798;2023-02-28T14:41:21;7.70;99.90
12688;DHT22;6408;59.388;17.798;2023-02-28T14:43:54;7.80;99.90
12688;DHT22;6408;59.388;17.798;2023-02-28T14:46:25;7.70;99.90
12688;DHT22;6408;59.388;17.798;2023-02-28T14:48:56;7.70;99.90
12688;DHT22;6408;59.388;17.798;2023-02-28T14:51:24;7.60;99.90
12688;DHT22;6408;59.388;17.798;2023-02-28T14:53:57;7.70;99.90
12688;DHT22;6408;59.388;17.798;2023-02-28T14:56:27;7.60;99.90
12688;DHT22;6408;59.388;17.798;2023-02-28T14:58:56;7.50;99.90
12688;DHT22;6408;59.388;17.798;2023-02-28T15:01:25;7.50;99.90
12688;DHT22;6408;59.388;17.798;2023-02-28T15:04:03;7.40;99.90
12688;DHT22;6408;59.388;17.798;2023-02-28T15:06:32;7.40;99.90
12688;DHT22;6408;59.388;17.798;2023-02-28T15:09:13;7.30;99.90
12688;DHT22;6408;59.388;17.798;2023-02-28T15:11:41;7.20;99.90
12688;DHT22;6408;59.388;17.798;2023-02-28T15:14:17;7.20;99.90
12688;DHT22;6408;59.388;17.798;2023-02-28T15:16:47;7.10;99.90
12688;DHT22;6408;59.388;17.798;2023-02-28T15:19:22;7.10;99.90
12688;DHT22;6408;59.388;17.798;2023-02-28T15:21:53;7.10;99.90
12688;DHT22;6408;59.388;17.798;2023-02-28T15:24:30;7.00;99.90
12688;DHT22;6408;59.388;17.798;2023-02-28T15:27:01;6.90;99.90
12688;DHT22;6408;59.388;17.798;2023-02-28T15:29:34;6.90;99.90
12688;DHT22;6408;59.388;17.798;2023-02-28T15:32:05;6.80;99.90
12688;DHT22;6408;59.388;17.798;2023-02-28T15:34:37;6.80;99.90
12688;DHT22;6408;59.388;17.798;2023-02-28T15:39:50;6.60;99.90
12688;DHT22;6408;59.388;17.798;2023-02-28T15:42:20;6.60;99.90
12688;DHT22;6408;59.388;17.798;2023-02-28T15:44:48;6.50;99.90
12688;DHT22;6408;59.388;17.798;2023-02-28T15:47:18;6.50;99.90
12688;DHT22;6408;59.388;17.798;2023-02-28T15:49:51;6.40;99.90
12688;DHT22;6408;59.388;17.798;2023-02-28T15:52:22;6.40;99.90
12688;DHT22;6408;59.388;17.798;2023-02-28T15:54:51;6.40;99.90
12688;DHT22;6408;59.388;17.798;2023-02-28T15:57:21;6.30;99.90
12688;DHT22;6408;59.388;17.798;2023-02-28T15:59:52;6.30;99.90
12688;DHT22;6408;59.388;17.798;2023-02-28T16:02:31;6.20;99.90
12688;DHT22;6408;59.388;17.798;2023-02-28T16:05:01;6.10;99.90
12688;DHT22;6408;59.388;17.798;2023-02-28T16:07:29;6.10;99.90
12688;DHT22;6408;59.388;17.798;2023-02-28T16:09:56;6.00;99.90
12688;DHT22;6408;59.388;17.798;2023-02-28T16:12:26;5.90;99.90
12688;DHT22;6408;59.388;17.798;2023-02-28T16:14:56;5.90;99.90
12688;DHT22;6408;59.388;17.798;2023-02-28T16:17:26;5.90;99.90
12688;DHT22;6408;59.388;17.798;2023-02-28T16:19:55;5.90;99.90
12688;DHT22;6408;59.388;17.798;2023-02-28T16:22:24;5.90;99.90
12688;DHT22;6408;59.388;17.798;2023-02-28T16:24:51;5.80;99.90
12688;DHT22;6408;59.388;17.798;2023-02-28T16:27:21;5.80;99.90
12688;DHT22;6408;59.388;17.798;2023-02-28T16:29:48;5.70;99.90
12688;DHT22;6408;59.388;17.798;2023-02-28T16:32:16;5.80;99.90
12688;DHT22;6408;59.388;17.798;2023-02-28T16:34:43;5.70;99.90